Time;durP1;ratioP1;P1;durP2;ratioP2;P2;SDS_P1;SDS_P2;PMS_P1;PMS_P2;Temp;Humidity;BMP_temperature;BMP_pressure;BME280_temperature;BME280_humidity;BME280_pressure;Samples;Min_cycle;Max_cycle;Signal;HPM_P1;HPM_P2
2024/01/19 00:02:08;;;;;;;14.80;10.40;;;;;;;-2.57;100.00;101364.97;5019127;28;20530;-60
2024/01/19 00:04:33;;;;;;;15.60;10.50;;;;;;;-2.58;100.00;101371.06;5020665;28;20026;-60
2024/01/19 00:06:59;;;;;;;15.55;9.18;;;;;;;-2.57;100.00;101361.53;5024361;28;20054;-60
2024/01/19 00:09:24;;;;;;;19.00;10.82;;;;;;;-2.55;100.00;101370.16;5025197;28;20032;-60
2024/01/19 00:11:50;;;;;;;16.38;9.93;;;;;;;-2.57;100.00;101370.19;5018133;28;20014;-60
2024/01/19 00:14:15;;;;;;;13.63;9.75;;;;;;;-2.56;100.00;101371.91;5022967;28;20047;-60
2024/01/19 00:16:42;;;;;;;13.43;9.80;;;;;;;-2.55;100.00;101375.34;5020682;28;20057;-60
2024/01/19 00:19:08;;;;;;;14.68;9.60;;;;;;;-2.56;100.00;101377.09;5025138;28;20021;-60
2024/01/19 00:21:34;;;;;;;15.63;9.70;;;;;;;-2.54;100.00;101377.94;5020182;28;20018;-60
2024/01/19 00:24:00;;;;;;;18.90;10.15;;;;;;;-2.55;100.00;101373.59;5022516;28;20429;-60
2024/01/19 00:26:25;;;;;;;15.63;9.52;;;;;;;-2.52;100.00;101375.31;5019947;28;20026;-60
2024/01/19 00:28:50;;;;;;;17.42;9.20;;;;;;;-2.52;100.00;101373.56;5022405;28;20021;-60
2024/01/19 00:31:16;;;;;;;14.88;9.23;;;;;;;-2.52;100.00;101376.19;5019679;28;20403;-61
2024/01/19 00:33:41;;;;;;;13.05;8.98;;;;;;;-2.51;100.00;101383.09;5023399;28;20029;-60
2024/01/19 00:36:07;;;;;;;12.85;9.40;;;;;;;-2.52;100.00;101385.72;5019570;28;20038;-60
2024/01/19 00:38:32;;;;;;;18.33;9.07;;;;;;;-2.53;100.00;101387.47;5019751;28;20254;-60
2024/01/19 00:40:57;;;;;;;17.98;9.75;;;;;;;-2.52;100.00;101383.13;5021882;28;20121;-61
2024/01/19 00:43:22;;;;;;;14.95;9.40;;;;;;;-2.54;100.00;101393.53;5023440;28;20025;-60
2024/01/19 00:45:48;;;;;;;14.45;9.45;;;;;;;-2.54;100.00;101400.50;5020929;28;20040;-61
2024/01/19 00:48:13;;;;;;;13.38;9.57;;;;;;;-2.54;100.00;101406.56;5024094;28;20025;-60
2024/01/19 00:50:38;;;;;;;13.15;8.88;;;;;;;-2.55;100.00;101397.03;5020596;28;20072;-61
2024/01/19 00:53:04;;;;;;;15.93;9.35;;;;;;;-2.56;100.00;101407.47;5023563;28;20045;-60
2024/01/19 00:55:29;;;;;;;17.02;9.60;;;;;;;-2.57;100.00;101401.38;5016333;28;20134;-60
2024/01/19 00:57:55;;;;;;;15.45;9.48;;;;;;;-2.58;100.00;101410.09;5019386;28;20052;-60
2024/01/19 01:00:20;;;;;;;13.30;9.02;;;;;;;-2.59;100.00;101407.50;5022112;28;20394;-60
2024/01/19 01:02:46;;;;;;;15.90;9.30;;;;;;;-2.59;100.00;101403.16;5018826;28;20030;-60
2024/01/19 01:05:11;;;;;;;13.52;8.13;;;;;;;-2.58;100.00;101404.00;5022460;28;20030;-61
2024/01/19 01:07:38;;;;;;;16.27;8.95;;;;;;;-2.58;100.00;101404.00;5016554;28;20034;-61
2024/01/19 01:10:04;;;;;;;13.57;8.73;;;;;;;-2.58;100.00;101393.59;5021054;28;20026;-61
2024/01/19 01:12:29;;;;;;;13.18;7.80;;;;;;;-2.56;100.00;101402.28;5018608;28;20026;-60
2024/01/19 01:14:54;;;;;;;16.00;8.77;;;;;;;-2.54;100.00;101390.09;5020006;28;20480;-60
2024/01/19 01:17:19;;;;;;;11.13;8.00;;;;;;;-2.54;100.00;101403.94;5021352;28;20025;-60
2024/01/19 01:19:45;;;;;;;12.52;7.95;;;;;;;-2.52;100.00;101396.97;5020390;28;20041;-60
2024/01/19 01:22:13;;;;;;;11.90;6.80;;;;;;;-2.51;100.00;101398.72;5020483;28;20459;-62
2024/01/19 01:24:38;;;;;;;10.05;7.22;;;;;;;-2.47;100.00;101404.72;5020024;28;20025;-60
2024/01/19 01:27:03;;;;;;;11.40;7.47;;;;;;;-2.45;100.00;101409.03;5020591;28;20513;-60
2024/01/19 01:29:29;;;;;;;13.13;7.07;;;;;;;-2.42;100.00;101421.97;5019249;28;21082;-60
2024/01/19 01:31:54;;;;;;;9.55;6.65;;;;;;;-2.39;100.00;101415.91;5021666;28;20526;-60
2024/01/19 01:34:19;;;;;;;8.98;6.38;;;;;;;-2.39;100.00;101415.91;5020048;28;20054;-60
2024/01/19 01:36:45;;;;;;;11.68;7.22;;;;;;;-2.36;100.00;101415.84;5021623;28;20117;-60
2024/01/19 01:39:13;;;;;;;13.05;6.97;;;;;;;-2.35;100.00;101427.09;5015132;28;20042;-60
2024/01/19 01:41:41;;;;;;;9.98;6.63;;;;;;;-2.34;100.00;101432.28;5018214;28;20100;-59
2024/01/19 01:44:06;;;;;;;11.77;6.50;;;;;;;-2.32;100.00;101429.69;5022869;28;20038;-60
2024/01/19 01:46:32;;;;;;;8.07;6.22;;;;;;;-2.33;100.00;101433.16;5020423;28;20033;-60
2024/01/19 01:48:57;;;;;;;7.00;6.13;;;;;;;-2.32;100.00;101437.47;5018560;28;20026;-60
2024/01/19 01:51:23;;;;;;;10.98;7.30;;;;;;;-2.34;100.00;101434.91;5021636;28;20022;-60
2024/01/19 01:53:49;;;;;;;9.68;6.35;;;;;;;-2.34;100.00;101431.44;5018801;28;20028;-60
2024/01/19 01:56:14;;;;;;;9.57;5.90;;;;;;;-2.35;100.00;101440.97;5020533;28;20113;-59
2024/01/19 01:58:40;;;;;;;10.70;6.85;;;;;;;-2.35;100.00;101442.72;5016599;28;20030;-59
2024/01/19 02:01:05;;;;;;;10.60;6.63;;;;;;;-2.35;100.00;101455.72;5021892;28;20069;-59
2024/01/19 02:03:31;;;;;;;9.65;6.13;;;;;;;-2.35;100.00;101459.19;5019267;28;20105;-60
2024/01/19 02:05:57;;;;;;;11.43;6.35;;;;;;;-2.37;100.00;101450.53;5018471;28;20037;-60
2024/01/19 02:08:22;;;;;;;10.02;7.00;;;;;;;-2.36;100.00;101454.88;5015070;28;20026;-60
2024/01/19 02:10:47;;;;;;;11.85;6.05;;;;;;;-2.37;100.00;101458.34;5022105;28;20112;-60
2024/01/19 02:13:13;;;;;;;8.20;6.22;;;;;;;-2.37;100.00;101466.16;5020993;28;20056;-60
2024/01/19 02:15:38;;;;;;;12.20;6.10;;;;;;;-2.39;100.00;101461.88;5019174;28;20486;-60
2024/01/19 02:18:04;;;;;;;9.32;5.97;;;;;;;-2.41;100.00;101464.47;5015236;28;20057;-60
2024/01/19 02:20:30;;;;;;;8.02;5.50;;;;;;;-2.42;100.00;101473.16;5017456;28;20391;-60
2024/01/19 02:22:55;;;;;;;10.02;5.70;;;;;;;-2.41;100.00;101469.69;5015088;28;20025;-60
2024/01/19 02:25:21;;;;;;;9.85;5.35;;;;;;;-2.42;100.00;101474.00;5017814;28;20045;-59
2024/01/19 02:27:46;;;;;;;9.82;5.60;;;;;;;-2.40;100.00;101476.59;5019291;28;20048;-61
2024/01/19 02:30:12;;;;;;;12.68;5.32;;;;;;;-2.41;100.00;101480.09;5023493;28;20095;-60
2024/01/19 02:32:38;;;;;;;8.35;5.18;;;;;;;-2.42;100.00;101480.97;5020689;28;20045;-60
2024/01/19 02:35:04;;;;;;;5.82;4.70;;;;;;;-2.40;100.00;101486.16;5019448;28;20498;-60
2024/01/19 02:37:30;;;;;;;7.18;4.25;;;;;;;-2.41;100.00;101485.28;5017999;28;20025;-60
2024/01/19 02:39:55;;;;;;;8.38;4.45;;;;;;;-2.40;100.00;101491.34;5020875;28;20037;-60
2024/01/19 02:42:20;;;;;;;4.63;3.88;;;;;;;-2.41;100.00;101493.09;5012482;28;20021;-60
2024/01/19 02:44:46;;;;;;;4.82;3.28;;;;;;;-2.43;100.00;101495.72;5018081;28;20044;-60
2024/01/19 02:47:11;;;;;;;7.72;3.30;;;;;;;-2.41;100.00;101498.31;5017898;28;20517;-60
2024/01/19 02:49:37;;;;;;;4.88;3.70;;;;;;;-2.39;100.00;101506.94;5021137;28;20517;-59
2024/01/19 02:52:02;;;;;;;4.22;3.75;;;;;;;-2.40;100.00;101496.56;5015988;28;20050;-59
2024/01/19 02:54:27;;;;;;;7.75;3.83;;;;;;;-2.37;100.00;101506.94;5021722;28;20394;-60
2024/01/19 02:56:53;;;;;;;6.05;3.85;;;;;;;-2.37;100.00;101507.78;5016747;28;20041;-60
2024/01/19 02:59:18;;;;;;;8.25;4.40;;;;;;;-2.36;100.00;101506.06;5019321;28;20021;-60
2024/01/19 03:01:43;;;;;;;8.68;3.97;;;;;;;-2.36;100.00;101506.91;5015945;28;20030;-59
2024/01/19 03:04:09;;;;;;;6.80;4.60;;;;;;;-2.35;100.00;101516.41;5018837;28;20036;-59
2024/01/19 03:06:34;;;;;;;10.75;4.55;;;;;;;-2.33;100.00;101509.47;5022572;28;20017;-60
2024/01/19 03:08:59;;;;;;;5.15;4.47;;;;;;;-2.32;100.00;101519.00;5017871;28;20493;-60
2024/01/19 03:11:24;;;;;;;8.45;5.00;;;;;;;-2.30;100.00;101521.56;5021541;28;20025;-60
2024/01/19 03:13:52;;;;;;;9.13;5.15;;;;;;;-2.30;100.00;101517.25;5016400;28;20033;-60
2024/01/19 03:16:18;;;;;;;5.75;4.88;;;;;;;-2.30;100.00;101517.25;5022596;28;20040;-60
2024/01/19 03:18:44;;;;;;;8.82;5.20;;;;;;;-2.29;100.00;101515.50;5018309;28;20108;-59
2024/01/19 03:21:10;;;;;;;11.60;6.18;;;;;;;-2.27;100.00;101521.53;5020574;28;20084;-60
2024/01/19 03:23:36;;;;;;;9.73;5.20;;;;;;;-2.28;100.00;101520.69;5020062;28;20025;-60
2024/01/19 03:26:01;;;;;;;9.85;6.18;;;;;;;-2.27;100.00;101530.19;5020360;28;20034;-60
2024/01/19 03:28:26;;;;;;;10.32;6.18;;;;;;;-2.26;100.00;101525.88;5016720;28;20018;-60
2024/01/19 03:30:52;;;;;;;10.25;6.25;;;;;;;-2.25;100.00;101530.19;5021777;28;20029;-60
2024/01/19 03:33:17;;;;;;;9.23;6.43;;;;;;;-2.26;100.00;101531.06;5016472;28;20025;-60
2024/01/19 03:35:43;;;;;;;10.93;6.80;;;;;;;-2.27;100.00;101524.13;5025580;28;20033;-60
2024/01/19 03:38:08;;;;;;;9.15;6.20;;;;;;;-2.25;100.00;101530.19;5022706;28;20052;-60
2024/01/19 03:40:33;;;;;;;10.05;6.38;;;;;;;-2.26;100.00;101534.53;5019876;28;20030;-60
2024/01/19 03:42:59;;;;;;;12.07;7.13;;;;;;;-2.25;100.00;101532.78;5021194;28;20036;-60
2024/01/19 03:45:24;;;;;;;10.38;6.75;;;;;;;-2.26;100.00;101525.88;5017511;28;20099;-60
2024/01/19 03:47:50;;;;;;;9.60;7.07;;;;;;;-2.25;100.00;101532.78;5022929;28;20107;-60
2024/01/19 03:50:15;;;;;;;10.95;7.78;;;;;;;-2.25;100.00;101533.66;5020747;28;20061;-60
2024/01/19 03:52:41;;;;;;;12.52;7.00;;;;;;;-2.25;100.00;101536.25;5022283;28;20046;-60
2024/01/19 03:55:07;;;;;;;13.02;7.20;;;;;;;-2.22;100.00;101537.09;5015863;28;20475;-60
2024/01/19 03:57:32;;;;;;;13.75;7.55;;;;;;;-2.23;100.00;101538.84;5021106;28;20037;-60
2024/01/19 03:59:59;;;;;;;10.88;7.88;;;;;;;-2.23;100.00;101538.84;5020658;28;20140;-60
2024/01/19 04:02:24;;;;;;;11.00;8.15;;;;;;;-2.24;100.00;101535.38;5018449;28;20100;-60
2024/01/19 04:04:49;;;;;;;12.00;7.78;;;;;;;-2.21;100.00;101541.41;5018085;28;20112;-60
2024/01/19 04:07:15;;;;;;;16.85;8.25;;;;;;;-2.23;100.00;101533.66;5023268;28;20382;-60
2024/01/19 04:09:41;;;;;;;13.45;8.02;;;;;;;-2.22;100.00;101537.94;5015915;28;20057;-60
2024/01/19 04:12:24;;;;;;;10.93;6.90;;;;;;;-2.19;100.00;101542.28;5023055;28;20521;-59
2024/01/19 04:14:50;;;;;;;13.15;8.32;;;;;;;-2.25;100.00;101541.47;5003860;28;20038;-59
2024/01/19 04:17:15;;;;;;;11.70;7.47;;;;;;;-2.24;100.00;101550.97;5022525;28;20033;-60
2024/01/19 04:19:40;;;;;;;13.63;8.10;;;;;;;-2.22;100.00;101555.31;5022151;28;20026;-60
2024/01/19 04:22:06;;;;;;;12.63;7.90;;;;;;;-2.24;100.00;101558.78;5021579;28;20021;-60
2024/01/19 04:24:31;;;;;;;11.93;8.07;;;;;;;-2.25;100.00;101556.19;5018576;28;20064;-60
2024/01/19 04:26:57;;;;;;;12.00;8.40;;;;;;;-2.27;100.00;101561.41;5022501;28;20564;-60
2024/01/19 04:29:22;;;;;;;14.20;8.50;;;;;;;-2.26;100.00;101568.34;5017597;28;20033;-60
2024/01/19 04:31:48;;;;;;;12.65;7.93;;;;;;;-2.26;100.00;101572.72;5020296;28;20036;-60
2024/01/19 04:34:13;;;;;;;12.43;8.35;;;;;;;-2.28;100.00;101571.84;5017951;28;20430;-60
2024/01/19 04:36:39;;;;;;;15.80;7.93;;;;;;;-2.28;100.00;101580.53;5023429;28;20029;-60
2024/01/19 04:39:04;;;;;;;11.88;8.15;;;;;;;-2.28;100.00;101567.53;5017160;28;20026;-60
2024/01/19 04:41:29;;;;;;;12.35;8.77;;;;;;;-2.29;100.00;101576.19;5021270;28;20052;-60
2024/01/19 04:43:55;;;;;;;14.35;8.75;;;;;;;-2.28;100.00;101584.84;5017462;28;20034;-60
2024/01/19 04:46:20;;;;;;;17.58;8.80;;;;;;;-2.29;100.00;101585.75;5023067;28;20068;-60
2024/01/19 04:48:45;;;;;;;11.13;8.20;;;;;;;-2.32;100.00;101594.44;5015680;28;20046;-59
2024/01/19 04:51:11;;;;;;;11.48;8.20;;;;;;;-2.32;100.00;101594.44;5019720;28;20022;-60
2024/01/19 04:53:36;;;;;;;14.05;8.52;;;;;;;-2.33;100.00;101605.75;5019789;28;20058;-59
2024/01/19 04:56:05;;;;;;;13.82;8.25;;;;;;;-2.34;100.00;101600.56;5020807;28;20044;-59
2024/01/19 04:58:33;;;;;;;12.95;8.77;;;;;;;-2.36;100.00;101602.31;5018155;28;20033;-60
2024/01/19 05:00:58;;;;;;;11.52;8.50;;;;;;;-2.38;100.00;101604.06;5021225;28;20033;-60
2024/01/19 05:03:23;;;;;;;14.05;8.98;;;;;;;-2.38;100.00;101606.66;5017434;28;20037;-60
2024/01/19 05:05:48;;;;;;;12.35;8.55;;;;;;;-2.40;100.00;101609.28;5019223;28;20026;-60
2024/01/19 05:08:14;;;;;;;13.15;8.60;;;;;;;-2.42;100.00;101609.28;5021399;28;20038;-59
2024/01/19 05:10:39;;;;;;;12.10;8.80;;;;;;;-2.42;100.00;101613.63;5021452;28;20109;-60
2024/01/19 05:13:04;;;;;;;13.20;9.30;;;;;;;-2.43;100.00;101611.94;5018821;28;20376;-59
2024/01/19 05:15:30;;;;;;;14.80;8.98;;;;;;;-2.44;100.00;101612.78;5023199;28;20025;-60
2024/01/19 05:17:57;;;;;;;12.98;9.43;;;;;;;-2.44;100.00;101616.25;5020852;28;20029;-59
2024/01/19 05:20:22;;;;;;;13.70;9.00;;;;;;;-2.45;100.00;101619.75;5019413;28;20079;-59
2024/01/19 05:22:48;;;;;;;16.23;9.10;;;;;;;-2.46;100.00;101622.38;5016867;28;20034;-60
2024/01/19 05:25:18;;;;;;;14.80;9.35;;;;;;;-2.46;100.00;101622.38;5018332;28;20022;-60
2024/01/19 05:27:43;;;;;;;10.93;9.07;;;;;;;-2.50;100.00;101616.34;5016745;28;21324;-59
2024/01/19 05:30:09;;;;;;;11.02;8.68;;;;;;;-2.50;100.00;101631.06;5020095;28;20034;-59
2024/01/19 05:32:34;;;;;;;13.10;9.55;;;;;;;-2.52;100.00;101633.66;5016397;28;20022;-60
2024/01/19 05:34:59;;;;;;;14.45;9.93;;;;;;;-2.53;100.00;101646.69;5020366;28;20041;-59
2024/01/19 05:37:26;;;;;;;13.10;9.40;;;;;;;-2.55;100.00;101641.50;5015423;28;20124;-60
2024/01/19 05:39:51;;;;;;;14.07;9.38;;;;;;;-2.56;100.00;101655.41;5005623;28;20034;-59
2024/01/19 05:42:17;;;;;;;16.00;9.27;;;;;;;-2.56;100.00;101654.53;5021262;28;20041;-60
2024/01/19 05:44:42;;;;;;;15.38;9.65;;;;;;;-2.57;100.00;101661.47;5015638;28;20033;-59
2024/01/19 05:47:07;;;;;;;12.80;9.57;;;;;;;-2.57;100.00;101671.00;5015233;28;20091;-58
2024/01/19 05:49:32;;;;;;;12.13;9.07;;;;;;;-2.56;100.00;101673.59;5016618;28;20527;-60
2024/01/19 05:51:58;;;;;;;14.32;9.18;;;;;;;-2.55;100.00;101679.66;5016035;28;20060;-60
2024/01/19 05:54:23;;;;;;;15.82;9.15;;;;;;;-2.56;100.00;101686.59;5022427;28;20037;-58
2024/01/19 05:56:49;;;;;;;13.68;9.23;;;;;;;-2.53;100.00;101698.69;5016525;28;20034;-57
2024/01/19 05:59:15;;;;;;;15.77;9.20;;;;;;;-2.51;100.00;101696.97;5020989;28;20112;-59
2024/01/19 06:01:40;;;;;;;13.07;9.70;;;;;;;-2.49;100.00;101708.22;5014215;28;20045;-59
2024/01/19 06:04:05;;;;;;;10.20;8.90;;;;;;;-2.46;100.00;101706.47;5021414;28;20029;-59
2024/01/19 06:06:30;;;;;;;12.63;9.15;;;;;;;-2.39;100.00;101711.63;5018550;28;20566;-59
2024/01/19 06:08:56;;;;;;;14.13;9.02;;;;;;;-2.36;100.00;101707.25;5018537;28;20048;-58
2024/01/19 06:11:21;;;;;;;11.45;8.18;;;;;;;-2.32;100.00;101734.09;5019174;28;20116;-59
2024/01/19 06:13:47;;;;;;;13.07;8.88;;;;;;;-2.30;100.00;101735.81;5017956;28;20029;-59
2024/01/19 06:16:13;;;;;;;14.43;8.98;;;;;;;-2.27;100.00;101740.97;5016494;28;20398;-59
2024/01/19 06:18:38;;;;;;;13.32;8.45;;;;;;;-2.24;100.00;101738.34;5016402;28;20029;-59
2024/01/19 06:21:09;;;;;;;11.95;8.95;;;;;;;-2.20;100.00;101738.31;5019068;28;20026;-59
2024/01/19 06:23:36;;;;;;;12.55;8.75;;;;;;;-2.18;100.00;101741.75;5008922;28;20100;-59
2024/01/19 06:26:02;;;;;;;13.80;8.77;;;;;;;-2.16;100.00;101748.69;5019057;28;20475;-59
2024/01/19 06:28:27;;;;;;;12.38;8.57;;;;;;;-2.12;100.00;101754.72;5020831;28;20025;-59
2024/01/19 06:30:53;;;;;;;13.35;8.73;;;;;;;-2.09;100.00;101752.94;5017994;28;20033;-59
2024/01/19 06:33:18;;;;;;;13.13;8.85;;;;;;;-2.04;100.00;101763.31;5018462;28;20030;-59
2024/01/19 06:35:43;;;;;;;11.75;8.57;;;;;;;-2.01;100.00;101758.09;5015670;28;20030;-59
2024/01/19 06:38:08;;;;;;;13.40;9.15;;;;;;;-1.98;100.00;101768.50;5019800;28;20072;-60
2024/01/19 06:40:34;;;;;;;13.68;8.57;;;;;;;-1.97;100.00;101778.00;5019737;28;20490;-59
2024/01/19 06:42:59;;;;;;;10.30;8.63;;;;;;;-1.95;100.00;101785.81;5018802;28;20037;-59
2024/01/19 06:45:24;;;;;;;17.00;8.35;;;;;;;-1.95;100.00;101794.50;5015928;28;20038;-59
2024/01/19 06:47:51;;;;;;;12.73;8.40;;;;;;;-1.94;100.00;101790.16;5019765;28;20029;-59
2024/01/19 06:50:16;;;;;;;10.43;8.30;;;;;;;-1.95;100.00;101786.69;5019913;28;20482;-59
2024/01/19 06:52:41;;;;;;;11.43;8.45;;;;;;;-1.93;100.00;101781.44;5021363;28;20054;-58
2024/01/19 06:55:07;;;;;;;16.15;9.23;;;;;;;-1.91;100.00;101787.50;5023239;28;20025;-58
2024/01/19 06:57:32;;;;;;;11.55;7.82;;;;;;;-1.93;100.00;101784.94;5014961;28;20026;-59
2024/01/19 06:59:57;;;;;;;10.57;7.63;;;;;;;-1.93;100.00;101790.13;5015386;28;20025;-59
2024/01/19 07:02:23;;;;;;;11.98;7.43;;;;;;;-1.94;100.00;101805.75;5008309;28;20096;-59
2024/01/19 07:04:48;;;;;;;10.95;8.32;;;;;;;-1.97;100.00;101809.25;5012165;28;20064;-59
2024/01/19 07:07:13;;;;;;;12.45;8.32;;;;;;;-1.98;100.00;101817.06;5022954;28;20108;-59
2024/01/19 07:09:39;;;;;;;12.05;8.20;;;;;;;-2.02;100.00;101816.22;5024009;28;20112;-58
2024/01/19 07:12:04;;;;;;;10.32;7.80;;;;;;;-2.05;100.00;101813.66;5023074;28;20321;-58
2024/01/19 07:14:30;;;;;;;9.93;7.93;;;;;;;-2.08;100.00;101817.16;5025070;28;20029;-61
2024/01/19 07:16:55;;;;;;;17.60;7.95;;;;;;;-2.12;100.00;101819.78;5014226;28;20134;-60
2024/01/19 07:19:21;;;;;;;11.48;7.93;;;;;;;-2.19;100.00;101829.38;5023436;28;20034;-60
2024/01/19 07:21:46;;;;;;;12.95;7.97;;;;;;;-2.25;100.00;101834.63;5018238;28;20030;-60
2024/01/19 07:24:12;;;;;;;12.80;8.02;;;;;;;-2.33;100.00;101845.13;5024097;28;20601;-59
2024/01/19 07:26:39;;;;;;;11.05;8.27;;;;;;;-2.41;100.00;101844.31;5018616;28;20030;-61
2024/01/19 07:29:06;;;;;;;12.45;8.77;;;;;;;-2.47;100.00;101845.19;5018086;28;20442;-59
2024/01/19 07:31:32;;;;;;;14.48;7.78;;;;;;;-2.53;100.00;101840.03;5019333;28;20044;-60
2024/01/19 07:33:58;;;;;;;9.98;8.35;;;;;;;-2.62;100.00;101833.13;5022494;28;20038;-60
2024/01/19 07:36:23;;;;;;;13.55;8.55;;;;;;;-2.68;100.00;101835.81;5025490;28;20177;-60
2024/01/19 07:38:49;;;;;;;15.10;9.10;;;;;;;-2.74;100.00;101840.16;5024629;28;20040;-60
2024/01/19 07:41:14;;;;;;;13.45;9.15;;;;;;;-2.80;100.00;101846.25;5016806;28;20022;-59
2024/01/19 07:43:39;;;;;;;14.13;8.85;;;;;;;-2.86;100.00;101849.75;5018933;28;20144;-60
2024/01/19 07:46:05;;;;;;;13.60;9.07;;;;;;;-2.90;100.00;101855.81;5019815;28;20037;-60
2024/01/19 07:48:30;;;;;;;12.70;9.18;;;;;;;-2.93;100.00;101858.47;5021219;28;20033;-59
2024/01/19 07:50:55;;;;;;;16.08;9.50;;;;;;;-2.96;100.00;101863.66;5025001;28;20354;-60
2024/01/19 07:53:20;;;;;;;15.15;9.82;;;;;;;-2.98;100.00;101870.63;5019236;28;20053;-60
2024/01/19 07:55:46;;;;;;;12.85;9.32;;;;;;;-3.03;100.00;101870.63;5022108;28;20398;-60
2024/01/19 07:58:11;;;;;;;14.50;9.40;;;;;;;-3.03;100.00;101881.03;5017931;28;20025;-60
2024/01/19 08:00:36;;;;;;;13.43;9.88;;;;;;;-3.05;100.00;101876.69;5022344;28;20099;-60
2024/01/19 08:03:02;;;;;;;15.05;10.07;;;;;;;-3.05;100.00;101879.28;5022127;28;20073;-60
2024/01/19 08:05:28;;;;;;;15.77;10.30;;;;;;;-3.05;100.00;101876.69;5021269;28;20045;-60
2024/01/19 08:07:53;;;;;;;13.73;9.52;;;;;;;-3.07;100.00;101881.03;5010139;28;20065;-60
2024/01/19 08:10:19;;;;;;;17.33;10.25;;;;;;;-3.07;100.00;101896.63;5024439;28;20455;-60
2024/01/19 08:12:44;;;;;;;14.57;10.15;;;;;;;-3.09;100.00;101901.81;5021127;28;20033;-60
2024/01/19 08:15:10;;;;;;;17.20;10.15;;;;;;;-3.09;100.00;101903.56;5019042;28;20420;-59
2024/01/19 08:17:35;;;;;;;13.50;10.23;;;;;;;-3.11;100.00;101910.47;5021306;28;20053;-59
2024/01/19 08:20:00;;;;;;;16.58;9.82;;;;;;;-3.14;100.00;101913.97;5023604;28;20033;-59
2024/01/19 08:22:26;;;;;;;19.70;10.57;;;;;;;-3.16;100.00;101915.72;5019645;28;20098;-60
2024/01/19 08:24:51;;;;;;;11.90;9.23;;;;;;;-3.17;100.00;101917.41;5022099;28;20432;-59
2024/01/19 08:27:16;;;;;;;19.25;10.10;;;;;;;-3.18;100.00;101922.63;5020236;28;20077;-60
2024/01/19 08:29:45;;;;;;;13.82;9.93;;;;;;;-3.19;100.00;101921.75;5020717;28;20510;-59
2024/01/19 08:32:10;;;;;;;16.10;10.70;;;;;;;-3.21;100.00;101913.13;5019018;28;20037;-59
2024/01/19 08:34:35;;;;;;;13.77;9.95;;;;;;;-3.20;100.00;101922.66;5017238;28;20037;-58
2024/01/19 08:37:01;;;;;;;13.05;9.50;;;;;;;-3.20;100.00;101921.75;5020175;28;20082;-59
2024/01/19 08:39:26;;;;;;;13.88;9.90;;;;;;;-3.21;100.00;101923.50;5018677;28;20017;-59
2024/01/19 08:41:51;;;;;;;12.73;9.55;;;;;;;-3.19;100.00;101928.72;5014570;28;20026;-59
2024/01/19 08:44:17;;;;;;;18.38;10.80;;;;;;;-3.19;100.00;101926.97;5021184;28;20026;-59
2024/01/19 08:46:43;;;;;;;12.20;9.80;;;;;;;-3.16;100.00;101926.97;5016681;28;20482;-58
2024/01/19 08:49:09;;;;;;;15.27;9.70;;;;;;;-3.13;100.00;101931.31;5019728;28;20033;-59
2024/01/19 08:51:34;;;;;;;14.00;9.23;;;;;;;-3.09;100.00;101933.00;5021878;28;20026;-58
2024/01/19 08:53:59;;;;;;;17.83;10.20;;;;;;;-3.02;100.00;101941.66;5016274;28;20524;-59
2024/01/19 08:56:25;;;;;;;12.15;10.05;;;;;;;-2.98;100.00;101936.44;5011417;28;20034;-58
2024/01/19 08:58:50;;;;;;;16.05;10.05;;;;;;;-2.92;100.00;101940.75;5011066;28;20463;-58
2024/01/19 09:01:19;;;;;;;15.48;9.98;;;;;;;-2.87;100.00;101939.00;5014489;28;20375;-59
2024/01/19 09:03:44;;;;;;;12.98;9.68;;;;;;;-2.81;100.00;101948.53;5012425;28;20033;-59
2024/01/19 09:06:10;;;;;;;14.20;9.20;;;;;;;-2.74;100.00;101951.97;5015967;28;20029;-58
2024/01/19 09:08:35;;;;;;;16.65;9.85;;;;;;;-2.65;100.00;101960.63;5019748;28;20105;-59
2024/01/19 09:11:01;;;;;;;12.25;9.13;;;;;;;-2.58;100.00;101966.66;5021117;28;20034;-59
2024/01/19 09:13:27;;;;;;;15.75;9.43;;;;;;;-2.50;100.00;101964.91;5018969;28;20101;-58
2024/01/19 09:15:53;;;;;;;14.77;9.43;;;;;;;-2.41;100.00;101969.19;5016114;28;20042;-59
2024/01/19 09:18:19;;;;;;;15.63;9.35;;;;;;;-2.33;100.00;101971.72;5018082;28;20179;-59
2024/01/19 09:20:45;;;;;;;14.63;9.75;;;;;;;-2.25;100.00;101981.25;5015725;28;20033;-58
2024/01/19 09:23:10;;;;;;;15.70;10.57;;;;;;;-2.15;100.00;101981.19;5010635;28;20040;-57
2024/01/19 09:25:35;;;;;;;13.07;9.93;;;;;;;-2.09;100.00;101982.00;5018396;28;20034;-60
2024/01/19 09:28:02;;;;;;;15.57;9.88;;;;;;;-2.01;100.00;101987.19;5015626;28;20025;-60
2024/01/19 09:30:27;;;;;;;13.57;9.50;;;;;;;-1.92;100.00;101991.47;5013380;28;20105;-58
2024/01/19 09:32:53;;;;;;;14.35;9.57;;;;;;;-1.82;100.00;101998.34;5003133;28;20026;-60
2024/01/19 09:35:18;;;;;;;16.92;9.77;;;;;;;-1.72;100.00;102001.75;5017258;28;20479;-59
2024/01/19 09:37:43;;;;;;;13.68;10.25;;;;;;;-1.62;100.00;102005.16;5017659;28;20515;-60
2024/01/19 09:40:09;;;;;;;17.63;10.75;;;;;;;-1.52;100.00;102002.47;5018212;28;20500;-60
2024/01/19 09:42:36;;;;;;;14.02;9.50;;;;;;;-1.41;100.00;101999.78;5017349;28;20438;-59
2024/01/19 09:45:04;;;;;;;13.63;10.52;;;;;;;-1.29;100.00;102011.84;5017845;28;20108;-60
2024/01/19 09:47:48;;;;;;;19.45;11.43;;;;;;;-1.20;100.00;102016.13;5020695;28;20379;-60
2024/01/19 09:50:18;;;;;;;16.50;9.85;;;;;;;-1.12;100.00;102016.91;5012805;28;20049;-59
2024/01/19 09:53:00;;;;;;;12.80;9.98;;;;;;;-1.03;100.00;102018.56;5019012;28;20045;-60
2024/01/19 09:55:27;;;;;;;16.90;10.63;;;;;;;-0.96;100.00;102018.50;5012914;28;20116;-60
2024/01/19 09:57:53;;;;;;;14.25;10.43;;;;;;;-0.84;100.00;102029.69;5016687;28;20030;-60
2024/01/19 10:00:19;;;;;;;14.35;10.43;;;;;;;-0.78;100.00;102033.09;5018061;28;20034;-60
2024/01/19 10:02:49;;;;;;;16.67;10.32;;;;;;;-0.68;100.00;102035.59;5015055;28;20800;-60
2024/01/19 10:05:16;;;;;;;17.60;10.18;;;;;;;-0.57;100.00;102044.19;5013779;28;20029;-60
2024/01/19 10:07:44;;;;;;;17.83;9.63;;;;;;;-0.50;100.00;102052.81;5016763;28;20058;-60
2024/01/19 10:10:10;;;;;;;16.27;10.07;;;;;;;-0.41;100.00;102052.72;5013483;28;20813;-59
2024/01/19 10:12:39;;;;;;;14.77;9.52;;;;;;;-0.32;100.00;102056.97;5010978;28;20073;-58
2024/01/19 10:15:15;;;;;;;14.63;10.25;;;;;;;-0.24;100.00;102052.53;5013093;28;20018;-58
2024/01/19 10:17:42;;;;;;;13.45;9.63;;;;;;;-0.16;100.00;102053.28;5021649;28;20034;-60
2024/01/19 10:20:14;;;;;;;19.05;10.13;;;;;;;-0.09;100.00;102046.25;5017968;28;20042;-60
2024/01/19 10:22:39;;;;;;;12.55;9.27;;;;;;;-0.02;100.00;102045.28;5021360;28;20092;-60
2024/01/19 10:25:11;;;;;;;16.58;9.60;;;;;;;0.03;100.00;102046.06;5019534;28;20442;-60
2024/01/19 10:27:48;;;;;;;12.02;8.75;;;;;;;0.10;100.00;102047.75;5010722;28;20092;-60
2024/01/19 10:30:29;;;;;;;13.23;9.27;;;;;;;0.18;100.00;102056.34;5014698;28;20472;-59
2024/01/19 10:33:06;;;;;;;12.70;8.93;;;;;;;0.28;100.00;102054.44;5017056;28;20063;-60
2024/01/19 10:35:32;;;;;;;15.57;8.85;;;;;;;0.38;100.00;102060.41;5016591;28;20112;-59
2024/01/19 10:38:05;;;;;;;14.90;9.32;;;;;;;0.46;100.00;102061.16;5016688;28;20595;-60
2024/01/19 10:40:33;;;;;;;16.60;8.93;;;;;;;0.59;100.00;102056.59;5018376;28;20843;-60
2024/01/19 10:42:58;;;;;;;12.40;9.07;;;;;;;0.68;100.00;102056.47;5013419;28;20108;-60
2024/01/19 10:45:25;;;;;;;15.15;8.60;;;;;;;0.76;100.00;102058.94;5013288;28;20156;-59
2024/01/19 10:47:56;;;;;;;12.93;8.75;;;;;;;0.85;100.00;102060.53;5016362;28;20387;-59
2024/01/19 10:50:25;;;;;;;13.73;8.38;;;;;;;0.95;100.00;102062.16;5017924;28;20359;-59
2024/01/19 10:52:51;;;;;;;15.77;9.18;;;;;;;1.03;100.00;102064.59;5014720;28;20816;-59
2024/01/19 10:55:21;;;;;;;14.80;8.80;;;;;;;1.06;100.00;102059.34;5006358;28;20095;-59
2024/01/19 10:58:06;;;;;;;14.63;8.50;;;;;;;1.13;100.00;102060.09;5019228;28;20030;-59
2024/01/19 11:00:32;;;;;;;13.38;9.32;;;;;;;1.17;100.00;102059.16;5022630;28;20053;-59
2024/01/19 11:03:00;;;;;;;15.00;9.63;;;;;;;1.23;100.00;102064.25;5018011;28;20037;-59
2024/01/19 11:05:26;;;;;;;17.83;10.15;;;;;;;1.27;100.00;102061.56;5016531;28;20027;-59